Impacts TAF Board INFO
FOR SITUATIONAL AWARENESS. NOT TO BE USED FOR FLIGHT PLANNING PURPOSES.
IDs:

KBOS - Boston/Logan Intl, MA, US

Issued at 1312 UTC 15 Aug 2018
Updated at 1331 UTC 15 Aug 2018
Potential Impact None Slight Moderate High
Time1254Z 15/14Z 15/15Z 15/16Z 15/17Z 15/18Z 15/19Z 15/20Z 15/21Z 15/22Z 15/23Z 16/00Z 16/01Z 16/02Z>>
Type OBS PRVL PRVL PRVL PRVL PRVL PRVL PRVL PRVL PRVL PRVL PRVL PRVL PRVL
VIS 9 >6 >6 >6 >6 >6 >6 >6 >6 >6 >6 >6 >6 >6
CIG 12 12 -- -- -- -- -- -- -- -- -- -- -- --
Cover OVC OVC SCT SCT SCT SCT SCT SCT SCT SCT SCT SCT SCT SCT
FltCat MVFR MVFR VFR VFR VFR VFR VFR VFR VFR VFR VFR VFR VFR VFR
WX -- -- -- -- -- -- -- -- -- -- -- -- -- --
WDir 230 230 260 260 260 120 120 120 80 80 80 250 250 250
WSpd 6 6 4 4 4 7 7 7 7 7 7 6 6 6
WGst -- -- -- -- -- -- -- -- -- -- -- -- -- --

Raw TAF
KBOS 151312Z 1513/1618 23006KT P6SM OVC012
  FM151430 26004KT P6SM SCT120
  FM151800 12007KT P6SM SCT050
  FM152100 08007KT P6SM SCT060
  FM160000 25006KT P6SM SCT200


Raw METAR
KBOS 151254Z 23006KT 9SM OVC012 24/21 A2983 RMK AO2 SLP102 T02390206
KBOS 151154Z 23008KT 8SM BKN012 OVC220 23/21 A2983 RMK AO2 SLP100 70001 T02330206 10233 20211 53007
KBOS 151145Z COR 23008KT 200V270 8SM BKN012 OVC220 23/21 A2983 RMK AO2 T02330206
KBOS 151118Z 23007KT 8SM FEW012 SCT150 BKN200 OVC220 23/21 A2982 RMK AO2 T02330206
KBOS 151054Z 23007KT 7SM BKN014 BKN021 BKN150 OVC220 23/21 A2982 RMK AO2 SLP097 T02280206

METAR Board
Radar Display
Forecast Discussion

FOR SITUATIONAL AWARENESS. NOT TO BE USED FOR FLIGHT PLANNING PURPOSES.